Time;durP1;ratioP1;P1;durP2;ratioP2;P2;SDS_P1;SDS_P2;PMS_P1;PMS_P2;Temp;Humidity;BMP_temperature;BMP_pressure;BME280_temperature;BME280_humidity;BME280_pressure;Samples;Min_cycle;Max_cycle;Signal;HPM_P1;HPM_P2
2023/11/27 00:01:43;;;;;;;8.57;4.55;;;;;;;;;;6162696;23;20040;-81
2023/11/27 00:04:11;;;;;;;6.55;4.40;;;;;;;;;;6136001;23;20017;-81
2023/11/27 00:06:38;;;;;;;6.03;3.30;;;;;;;;;;6137520;23;20017;-81
2023/11/27 00:09:10;;;;;;;3.78;3.38;;;;;;;;;;6187750;23;20028;-81
2023/11/27 00:11:38;;;;;;;13.13;5.03;;;;;;;;;;6162275;23;20453;-81
2023/11/27 00:14:06;;;;;;;10.35;3.90;;;;;;;;;;6161616;23;20017;-81
2023/11/27 00:16:35;;;;;;;8.05;3.65;;;;;;;;;;6137684;23;20021;-81
2023/11/27 00:19:02;;;;;;;5.13;4.22;;;;;;;;;;6161901;23;20016;-81
2023/11/27 00:21:30;;;;;;;4.75;3.97;;;;;;;;;;6144710;23;20233;-80
2023/11/27 00:23:58;;;;;;;5.13;3.83;;;;;;;;;;6196690;23;20021;-80
2023/11/27 00:26:25;;;;;;;6.03;4.05;;;;;;;;;;6170815;23;20017;-80
2023/11/27 00:28:57;;;;;;;10.55;4.75;;;;;;;;;;6201424;23;20013;-81
2023/11/27 00:31:24;;;;;;;8.38;5.40;;;;;;;;;;6167934;23;20449;-81
2023/11/27 00:33:52;;;;;;;4.43;3.85;;;;;;;;;;6163433;23;20013;-81
2023/11/27 00:36:22;;;;;;;6.15;5.07;;;;;;;;;;6175846;23;20025;-81
2023/11/27 00:38:52;;;;;;;15.05;5.25;;;;;;;;;;6142815;23;20025;-81
2023/11/27 00:41:21;;;;;;;4.93;4.38;;;;;;;;;;6146723;23;20027;-81
2023/11/27 00:43:51;;;;;;;8.88;4.38;;;;;;;;;;6150596;23;20029;-81
2023/11/27 00:46:20;;;;;;;7.85;3.33;;;;;;;;;;6151369;23;20031;-81
2023/11/27 00:48:48;;;;;;;8.82;4.82;;;;;;;;;;6150596;23;20031;-81
2023/11/27 00:51:16;;;;;;;6.97;4.82;;;;;;;;;;6150489;23;20027;-81
2023/11/27 00:53:44;;;;;;;7.18;3.97;;;;;;;;;;6171989;23;20023;-81
2023/11/27 00:56:13;;;;;;;6.38;4.25;;;;;;;;;;6145638;23;20024;-81
2023/11/27 00:58:40;;;;;;;5.53;4.20;;;;;;;;;;6142641;23;20021;-81
2023/11/27 01:01:08;;;;;;;6.53;4.25;;;;;;;;;;6143293;23;20023;-81
2023/11/27 01:03:36;;;;;;;6.18;3.80;;;;;;;;;;6166119;23;20027;-81
2023/11/27 01:06:04;;;;;;;6.78;5.15;;;;;;;;;;6140960;23;20028;-81
2023/11/27 01:08:32;;;;;;;5.25;4.75;;;;;;;;;;6140308;23;20344;-81
2023/11/27 01:11:00;;;;;;;5.43;4.78;;;;;;;;;;6140912;23;20021;-81
2023/11/27 01:13:29;;;;;;;7.15;4.35;;;;;;;;;;6139845;23;20021;-81
2023/11/27 01:15:56;;;;;;;8.40;5.03;;;;;;;;;;6137556;23;20017;-81
2023/11/27 01:18:26;;;;;;;8.75;4.55;;;;;;;;;;6138651;23;20031;-81
2023/11/27 01:20:53;;;;;;;6.85;4.72;;;;;;;;;;6163393;23;20013;-81
2023/11/27 01:23:20;;;;;;;10.45;4.88;;;;;;;;;;6163881;23;20771;-81
2023/11/27 01:25:49;;;;;;;7.78;4.78;;;;;;;;;;6140209;23;20013;-81
2023/11/27 01:28:17;;;;;;;7.78;4.50;;;;;;;;;;6162661;23;20043;-85
2023/11/27 01:30:45;;;;;;;7.68;4.15;;;;;;;;;;6140066;23;20023;-81
2023/11/27 01:33:15;;;;;;;4.53;4.13;;;;;;;;;;6165861;23;20017;-81
2023/11/27 01:35:44;;;;;;;8.50;4.57;;;;;;;;;;6142575;23;20017;-81
2023/11/27 01:38:11;;;;;;;7.95;4.50;;;;;;;;;;6168116;23;20013;-81
2023/11/27 01:40:39;;;;;;;5.72;4.47;;;;;;;;;;6145509;23;20024;-81
2023/11/27 01:43:14;;;;;;;8.00;5.53;;;;;;;;;;6147660;23;20050;-81
2023/11/27 01:45:42;;;;;;;9.32;4.78;;;;;;;;;;6147817;23;20025;-81
2023/11/27 01:48:10;;;;;;;5.50;5.00;;;;;;;;;;6147289;23;20023;-81
2023/11/27 01:50:40;;;;;;;5.03;4.53;;;;;;;;;;6172482;23;20048;-81
2023/11/27 01:53:09;;;;;;;7.82;4.70;;;;;;;;;;6145592;23;20479;-81
2023/11/27 01:55:37;;;;;;;9.77;4.78;;;;;;;;;;6119467;23;20017;-81
2023/11/27 01:58:04;;;;;;;7.97;4.45;;;;;;;;;;6141678;23;20329;-81
2023/11/27 02:00:35;;;;;;;8.77;4.38;;;;;;;;;;6165843;23;20303;-81
2023/11/27 02:03:03;;;;;;;13.13;4.93;;;;;;;;;;6140852;23;20024;-81
2023/11/27 02:05:30;;;;;;;5.60;4.68;;;;;;;;;;6140548;23;20017;-81
2023/11/27 02:08:00;;;;;;;7.93;5.47;;;;;;;;;;6164517;23;20023;-81
2023/11/27 02:10:30;;;;;;;7.95;5.45;;;;;;;;;;6147229;23;20013;-81
2023/11/27 02:12:57;;;;;;;10.10;5.68;;;;;;;;;;6189974;23;20017;-81
2023/11/27 02:15:26;;;;;;;13.68;7.03;;;;;;;;;;6163306;23;20063;-81
2023/11/27 02:17:54;;;;;;;9.68;5.20;;;;;;;;;;6163589;23;20017;-81
2023/11/27 02:20:24;;;;;;;7.65;6.32;;;;;;;;;;6169367;23;20028;-81
2023/11/27 02:22:51;;;;;;;6.82;5.40;;;;;;;;;;6162941;23;20024;-81
2023/11/27 02:25:20;;;;;;;8.43;4.70;;;;;;;;;;6162939;23;20009;-81
2023/11/27 02:27:52;;;;;;;9.27;5.95;;;;;;;;;;6139829;23;20036;-81
2023/11/27 02:30:22;;;;;;;7.40;5.45;;;;;;;;;;6138966;23;20027;-81
2023/11/27 02:32:50;;;;;;;8.30;5.45;;;;;;;;;;6140245;23;20021;-81
2023/11/27 02:35:18;;;;;;;7.90;5.70;;;;;;;;;;6141570;23;20020;-81
2023/11/27 02:37:45;;;;;;;9.02;7.18;;;;;;;;;;6177249;23;20005;-81
2023/11/27 02:40:19;;;;;;;9.88;6.20;;;;;;;;;;6164529;23;20057;-81
2023/11/27 02:42:49;;;;;;;8.63;6.18;;;;;;;;;;6165699;23;20068;-81
2023/11/27 02:45:21;;;;;;;8.23;6.03;;;;;;;;;;6165627;23;20053;-81
2023/11/27 02:47:48;;;;;;;15.73;6.30;;;;;;;;;;6154994;23;20023;-81
2023/11/27 02:50:15;;;;;;;7.75;6.28;;;;;;;;;;6178701;23;20009;-81
2023/11/27 02:52:46;;;;;;;6.82;6.20;;;;;;;;;;6155268;23;20029;-81
2023/11/27 02:55:13;;;;;;;10.65;7.22;;;;;;;;;;6161037;23;20016;-81
2023/11/27 02:57:41;;;;;;;12.23;5.55;;;;;;;;;;6135244;23;20302;-81
2023/11/27 03:00:12;;;;;;;7.88;6.38;;;;;;;;;;6167513;23;20013;-81
2023/11/27 03:02:39;;;;;;;6.80;5.60;;;;;;;;;;6170187;23;20019;-81
2023/11/27 03:05:08;;;;;;;8.75;5.03;;;;;;;;;;6136281;23;20017;-81
2023/11/27 03:07:38;;;;;;;7.65;4.20;;;;;;;;;;6160252;23;20021;-81
2023/11/27 03:10:08;;;;;;;6.07;5.28;;;;;;;;;;6160093;23;20025;-81
2023/11/27 03:12:38;;;;;;;6.20;5.00;;;;;;;;;;6136448;23;20034;-81
2023/11/27 03:15:10;;;;;;;8.15;5.45;;;;;;;;;;6136202;23;20017;-81
2023/11/27 03:17:39;;;;;;;7.70;5.78;;;;;;;;;;6170608;23;20024;-81
2023/11/27 03:20:12;;;;;;;10.60;6.50;;;;;;;;;;6159934;23;20346;-81
2023/11/27 03:22:43;;;;;;;11.25;5.85;;;;;;;;;;6170832;23;20020;-81
2023/11/27 03:25:11;;;;;;;7.93;6.15;;;;;;;;;;6136124;23;20017;-81
2023/11/27 03:27:42;;;;;;;11.40;5.90;;;;;;;;;;6171007;23;20017;-81
2023/11/27 03:30:14;;;;;;;8.02;5.65;;;;;;;;;;6135301;23;20024;-82
2023/11/27 03:32:41;;;;;;;11.57;5.35;;;;;;;;;;6159984;23;20013;-81
2023/11/27 03:35:09;;;;;;;6.88;4.65;;;;;;;;;;6136093;23;20017;-81
2023/11/27 03:37:36;;;;;;;8.60;5.50;;;;;;;;;;6161046;23;20013;-81
2023/11/27 03:40:05;;;;;;;8.60;4.97;;;;;;;;;;6135836;23;20017;-81
2023/11/27 03:42:32;;;;;;;7.18;6.05;;;;;;;;;;6136517;23;20021;-81
2023/11/27 03:45:01;;;;;;;9.88;6.22;;;;;;;;;;6136338;23;20021;-81
2023/11/27 03:47:29;;;;;;;6.32;5.32;;;;;;;;;;6160302;23;20009;-81
2023/11/27 03:49:57;;;;;;;6.35;5.75;;;;;;;;;;6135720;23;20024;-81
2023/11/27 03:52:26;;;;;;;9.85;6.07;;;;;;;;;;6136127;23;20032;-81
2023/11/27 03:54:54;;;;;;;7.53;5.80;;;;;;;;;;6136164;23;20021;-81
2023/11/27 03:57:24;;;;;;;7.95;5.63;;;;;;;;;;6136384;23;20024;-81
2023/11/27 03:59:54;;;;;;;7.93;6.53;;;;;;;;;;6136844;23;20025;-80
2023/11/27 04:02:23;;;;;;;8.90;4.63;;;;;;;;;;6162416;23;20017;-81
2023/11/27 04:04:52;;;;;;;5.80;5.20;;;;;;;;;;6136723;23;20017;-81
2023/11/27 04:07:22;;;;;;;7.03;5.40;;;;;;;;;;6172828;23;20013;-81
2023/11/27 04:09:50;;;;;;;7.35;5.30;;;;;;;;;;6138109;23;20025;-80
2023/11/27 04:12:18;;;;;;;7.43;5.18;;;;;;;;;;6161671;23;20016;-80
2023/11/27 04:14:48;;;;;;;7.40;5.55;;;;;;;;;;6137447;23;20029;-81
2023/11/27 04:17:15;;;;;;;7.40;6.68;;;;;;;;;;6112270;23;20017;-81
2023/11/27 04:19:43;;;;;;;8.52;5.68;;;;;;;;;;6161897;23;20449;-81
2023/11/27 04:22:18;;;;;;;7.90;5.30;;;;;;;;;;6161279;23;20024;-81
2023/11/27 04:24:51;;;;;;;8.52;7.13;;;;;;;;;;6172072;23;20039;-81
2023/11/27 04:27:18;;;;;;;9.50;5.95;;;;;;;;;;6136538;23;20013;-81
2023/11/27 04:29:45;;;;;;;10.05;6.47;;;;;;;;;;6130824;23;20028;-78
2023/11/27 04:32:12;;;;;;;6.85;5.72;;;;;;;;;;6154573;23;20013;-78
2023/11/27 04:34:40;;;;;;;6.63;5.80;;;;;;;;;;6127940;23;20040;-78
2023/11/27 04:37:10;;;;;;;9.82;5.53;;;;;;;;;;6103501;23;20017;-78
2023/11/27 04:39:39;;;;;;;5.53;4.90;;;;;;;;;;6128626;23;20477;-78
2023/11/27 04:42:07;;;;;;;6.85;5.60;;;;;;;;;;6103239;23;20018;-78
2023/11/27 04:44:35;;;;;;;7.35;5.32;;;;;;;;;;6127838;23;20021;-78
2023/11/27 04:47:02;;;;;;;11.05;5.25;;;;;;;;;;6127844;23;20017;-78
2023/11/27 04:49:29;;;;;;;6.90;5.07;;;;;;;;;;6103873;23;20017;-78
2023/11/27 04:51:57;;;;;;;10.25;7.78;;;;;;;;;;6154475;23;20017;-79
2023/11/27 04:54:24;;;;;;;8.10;6.53;;;;;;;;;;6128148;23;20021;-79
2023/11/27 04:56:58;;;;;;;7.75;5.72;;;;;;;;;;6103775;23;20021;-79
2023/11/27 04:59:26;;;;;;;7.80;5.93;;;;;;;;;;6163375;23;20014;-79
2023/11/27 05:01:58;;;;;;;8.20;6.03;;;;;;;;;;6154881;23;20349;-79
2023/11/27 05:04:25;;;;;;;10.63;7.45;;;;;;;;;;6128766;23;20013;-79
2023/11/27 05:06:55;;;;;;;7.68;5.85;;;;;;;;;;6153262;23;20021;-79
2023/11/27 05:09:22;;;;;;;7.97;6.03;;;;;;;;;;6128475;23;20022;-79
2023/11/27 05:11:49;;;;;;;10.05;6.05;;;;;;;;;;6103238;23;20025;-79
2023/11/27 05:14:21;;;;;;;5.93;5.35;;;;;;;;;;6155128;23;20013;-79
2023/11/27 05:16:48;;;;;;;9.18;5.50;;;;;;;;;;6154099;23;20346;-79
2023/11/27 05:19:16;;;;;;;6.70;5.65;;;;;;;;;;6103387;23;20024;-79
2023/11/27 05:21:50;;;;;;;10.68;4.97;;;;;;;;;;6130328;23;20489;-79
2023/11/27 05:24:17;;;;;;;8.73;5.93;;;;;;;;;;6103902;23;20017;-79
2023/11/27 05:26:44;;;;;;;8.82;6.13;;;;;;;;;;6154659;23;20013;-79
2023/11/27 05:29:14;;;;;;;5.88;4.75;;;;;;;;;;6127689;23;20025;-79
2023/11/27 05:31:42;;;;;;;6.55;5.13;;;;;;;;;;6127753;23;20022;-79
2023/11/27 05:34:10;;;;;;;6.22;5.40;;;;;;;;;;6127975;23;20023;-79
2023/11/27 05:36:39;;;;;;;6.07;4.13;;;;;;;;;;6128436;23;20024;-79
2023/11/27 05:39:10;;;;;;;6.72;5.32;;;;;;;;;;6128644;23;20014;-79
2023/11/27 05:41:37;;;;;;;6.05;5.45;;;;;;;;;;6103304;23;20335;-79
2023/11/27 05:44:07;;;;;;;11.13;6.28;;;;;;;;;;6127994;23;20018;-79
2023/11/27 05:46:37;;;;;;;8.30;5.75;;;;;;;;;;6103389;23;20020;-79
2023/11/27 05:49:08;;;;;;;8.02;5.57;;;;;;;;;;6103729;23;20024;-79
2023/11/27 05:51:39;;;;;;;6.47;5.70;;;;;;;;;;6103296;23;20364;-79
2023/11/27 05:54:07;;;;;;;5.60;3.85;;;;;;;;;;6154386;23;20017;-79
2023/11/27 05:56:34;;;;;;;8.02;4.88;;;;;;;;;;6125302;23;20015;-79
2023/11/27 05:59:01;;;;;;;5.72;5.13;;;;;;;;;;6125624;23;20048;-79
2023/11/27 06:01:31;;;;;;;9.48;6.22;;;;;;;;;;6153099;23;20024;-79
2023/11/27 06:04:00;;;;;;;8.40;5.05;;;;;;;;;;6126214;23;20021;-79
2023/11/27 06:06:29;;;;;;;7.55;6.10;;;;;;;;;;6103367;23;20500;-79
2023/11/27 06:08:56;;;;;;;10.13;6.47;;;;;;;;;;6103110;23;20017;-79
2023/11/27 06:11:23;;;;;;;8.73;4.85;;;;;;;;;;6127770;23;20028;-79
2023/11/27 06:13:56;;;;;;;6.38;5.53;;;;;;;;;;6139294;23;20532;-79
2023/11/27 06:16:25;;;;;;;6.13;5.47;;;;;;;;;;6105352;23;20018;-79
2023/11/27 06:18:55;;;;;;;9.52;4.93;;;;;;;;;;6165621;23;20025;-79
2023/11/27 06:21:24;;;;;;;6.65;5.40;;;;;;;;;;6130204;23;20028;-79
2023/11/27 06:23:57;;;;;;;7.28;5.38;;;;;;;;;;6129910;23;20323;-79
2023/11/27 06:26:25;;;;;;;6.55;5.18;;;;;;;;;;6105505;23;20020;-79
2023/11/27 06:28:52;;;;;;;6.88;4.85;;;;;;;;;;6104581;23;20028;-79
2023/11/27 06:31:21;;;;;;;6.07;4.55;;;;;;;;;;6154425;23;20018;-79
2023/11/27 06:33:48;;;;;;;5.70;4.70;;;;;;;;;;6129833;23;20022;-79
2023/11/27 06:36:16;;;;;;;7.80;6.20;;;;;;;;;;6154741;23;20017;-79
2023/11/27 06:38:45;;;;;;;8.68;6.43;;;;;;;;;;6154170;23;20029;-79
2023/11/27 06:41:14;;;;;;;24.98;5.32;;;;;;;;;;6105373;23;20036;-79
2023/11/27 06:43:42;;;;;;;5.63;5.03;;;;;;;;;;6105512;23;20017;-79
2023/11/27 06:46:12;;;;;;;5.72;5.15;;;;;;;;;;6105322;23;20025;-79
2023/11/27 06:48:42;;;;;;;11.57;6.07;;;;;;;;;;6139941;23;20017;-79
2023/11/27 06:51:10;;;;;;;5.82;4.63;;;;;;;;;;6129823;23;20028;-79
2023/11/27 06:53:40;;;;;;;9.50;6.15;;;;;;;;;;6105978;23;20022;-79
2023/11/27 06:56:09;;;;;;;5.50;4.57;;;;;;;;;;6157407;23;20451;-79
2023/11/27 06:58:43;;;;;;;7.57;5.43;;;;;;;;;;6106808;23;20335;-79
2023/11/27 07:01:11;;;;;;;7.75;4.72;;;;;;;;;;6131096;23;20036;-79
2023/11/27 07:03:43;;;;;;;7.13;6.40;;;;;;;;;;6141531;23;20021;-79
2023/11/27 07:06:12;;;;;;;6.10;5.50;;;;;;;;;;6130800;23;20453;-79
2023/11/27 07:08:40;;;;;;;7.95;4.97;;;;;;;;;;6130558;23;20477;-79
2023/11/27 07:11:09;;;;;;;6.97;5.25;;;;;;;;;;6130662;23;20026;-80
2023/11/27 07:13:36;;;;;;;7.25;4.78;;;;;;;;;;6106348;23;20036;-80
2023/11/27 07:16:10;;;;;;;7.68;4.88;;;;;;;;;;6130338;23;20051;-80
2023/11/27 07:18:40;;;;;;;8.45;6.25;;;;;;;;;;6130705;23;20018;-79
2023/11/27 07:21:12;;;;;;;6.03;5.25;;;;;;;;;;6130704;23;20022;-79
2023/11/27 07:23:44;;;;;;;6.32;5.47;;;;;;;;;;6167455;23;20024;-79
2023/11/27 07:26:14;;;;;;;7.95;5.55;;;;;;;;;;6131601;23;20024;-79
2023/11/27 07:28:44;;;;;;;6.93;5.57;;;;;;;;;;6131260;23;20021;-79
2023/11/27 07:31:16;;;;;;;8.40;7.20;;;;;;;;;;6165533;23;20024;-79
2023/11/27 07:33:44;;;;;;;10.70;7.60;;;;;;;;;;6131629;23;20454;-79
2023/11/27 07:36:13;;;;;;;7.60;6.90;;;;;;;;;;6106897;23;20027;-80
2023/11/27 07:38:43;;;;;;;15.25;8.38;;;;;;;;;;6106058;23;20024;-80
2023/11/27 07:41:10;;;;;;;7.22;5.90;;;;;;;;;;6130863;23;20017;-80
2023/11/27 07:43:40;;;;;;;8.55;6.47;;;;;;;;;;6156721;23;20013;-80
2023/11/27 07:46:10;;;;;;;9.73;6.45;;;;;;;;;;6156715;23;20480;-80
2023/11/27 07:48:42;;;;;;;13.73;6.72;;;;;;;;;;6106272;23;20357;-80
2023/11/27 07:51:10;;;;;;;7.13;5.75;;;;;;;;;;6105582;23;20017;-80
2023/11/27 07:53:37;;;;;;;7.10;5.55;;;;;;;;;;6130464;23;20041;-80
2023/11/27 07:56:05;;;;;;;12.25;6.95;;;;;;;;;;6141066;23;20014;-80
2023/11/27 07:58:36;;;;;;;9.40;7.43;;;;;;;;;;6130988;23;20017;-80
2023/11/27 08:01:04;;;;;;;10.35;6.07;;;;;;;;;;6131579;23;20018;-79
2023/11/27 08:03:36;;;;;;;8.63;7.30;;;;;;;;;;6141269;23;20040;-79
2023/11/27 08:06:06;;;;;;;9.20;6.03;;;;;;;;;;6155269;23;20017;-79
2023/11/27 08:08:36;;;;;;;10.25;6.88;;;;;;;;;;6140264;23;20013;-79
2023/11/27 08:11:04;;;;;;;7.30;6.32;;;;;;;;;;6129772;23;20014;-79
2023/11/27 08:13:32;;;;;;;9.20;6.03;;;;;;;;;;6080981;23;20017;-79
2023/11/27 08:15:59;;;;;;;7.95;6.35;;;;;;;;;;6129442;23;20021;-79
2023/11/27 08:18:26;;;;;;;9.05;6.13;;;;;;;;;;6164759;23;20014;-79
2023/11/27 08:20:53;;;;;;;15.45;9.82;;;;;;;;;;6129047;23;20025;-79
2023/11/27 08:23:22;;;;;;;8.57;6.60;;;;;;;;;;6129404;23;20017;-79
2023/11/27 08:25:49;;;;;;;7.28;6.55;;;;;;;;;;6155253;23;20013;-79
2023/11/27 08:28:16;;;;;;;6.47;5.10;;;;;;;;;;6128757;23;20018;-79
2023/11/27 08:30:46;;;;;;;8.82;5.90;;;;;;;;;;6128929;23;20354;-79
2023/11/27 08:33:16;;;;;;;7.15;5.22;;;;;;;;;;6129160;23;20029;-79
2023/11/27 08:35:43;;;;;;;5.88;3.92;;;;;;;;;;6155900;23;20342;-79
2023/11/27 08:38:13;;;;;;;7.72;5.03;;;;;;;;;;6128928;23;20017;-79
2023/11/27 08:40:43;;;;;;;5.25;3.75;;;;;;;;;;6105236;23;20025;-79
2023/11/27 08:43:13;;;;;;;5.10;3.58;;;;;;;;;;6153668;23;20018;-79
2023/11/27 08:45:43;;;;;;;5.13;3.78;;;;;;;;;;6139388;23;20350;-79
2023/11/27 08:48:12;;;;;;;5.70;4.35;;;;;;;;;;6128675;23;20542;-79
2023/11/27 08:50:42;;;;;;;5.93;4.57;;;;;;;;;;6104901;23;20017;-79
2023/11/27 08:53:09;;;;;;;7.13;6.43;;;;;;;;;;6128688;23;20024;-79
2023/11/27 08:55:38;;;;;;;7.45;4.78;;;;;;;;;;6165525;23;20014;-79
2023/11/27 08:58:11;;;;;;;6.03;3.88;;;;;;;;;;6104712;23;20017;-79
2023/11/27 09:00:38;;;;;;;5.15;3.30;;;;;;;;;;6104722;23;20017;-79
2023/11/27 09:03:08;;;;;;;7.55;6.78;;;;;;;;;;6132247;23;20465;-79
2023/11/27 09:05:37;;;;;;;6.97;6.10;;;;;;;;;;6160604;23;20020;-79
2023/11/27 09:08:06;;;;;;;6.55;4.18;;;;;;;;;;6131182;23;20022;-78
2023/11/27 09:10:34;;;;;;;4.28;3.65;;;;;;;;;;6099776;23;20024;-78
2023/11/27 09:13:05;;;;;;;3.88;3.13;;;;;;;;;;6105158;23;20044;-78
2023/11/27 09:15:34;;;;;;;4.05;3.47;;;;;;;;;;6129047;23;20350;-78
2023/11/27 09:18:01;;;;;;;3.50;3.10;;;;;;;;;;6163539;23;20018;-78
2023/11/27 09:20:28;;;;;;;11.10;4.65;;;;;;;;;;6127305;23;20323;-78
2023/11/27 09:22:57;;;;;;;4.15;3.42;;;;;;;;;;6154410;23;20013;-78
2023/11/27 09:25:25;;;;;;;7.53;5.95;;;;;;;;;;6125588;23;20502;-78
2023/11/27 09:27:52;;;;;;;5.85;4.80;;;;;;;;;;6126134;23;20013;-78
2023/11/27 09:30:20;;;;;;;4.38;3.38;;;;;;;;;;6126004;23;20022;-78
2023/11/27 09:32:51;;;;;;;9.10;4.30;;;;;;;;;;6103059;23;20327;-78
2023/11/27 09:35:20;;;;;;;4.80;4.03;;;;;;;;;;6126354;23;20037;-78
2023/11/27 09:37:47;;;;;;;6.10;3.53;;;;;;;;;;6127117;23;20020;-78
2023/11/27 09:40:16;;;;;;;6.85;2.75;;;;;;;;;;6126685;23;20018;-78
2023/11/27 09:42:43;;;;;;;5.90;3.17;;;;;;;;;;6103291;23;20017;-78
2023/11/27 09:45:11;;;;;;;6.20;3.75;;;;;;;;;;6126600;23;20025;-78
2023/11/27 09:47:43;;;;;;;3.47;2.72;;;;;;;;;;6123961;23;20095;-78
2023/11/27 09:50:13;;;;;;;2.88;2.50;;;;;;;;;;6101256;23;20025;-78
2023/11/27 09:52:52;;;;;;;4.22;3.72;;;;;;;;;;6122651;23;20018;-79
2023/11/27 09:55:21;;;;;;;4.50;2.45;;;;;;;;;;6125050;23;20018;-79
2023/11/27 09:57:49;;;;;;;4.15;3.35;;;;;;;;;;6102252;23;20457;-79
2023/11/27 10:00:19;;;;;;;2.88;2.67;;;;;;;;;;6128754;23;20032;-78
2023/11/27 10:02:51;;;;;;;4.60;4.07;;;;;;;;;;6127215;23;20354;-78
2023/11/27 10:05:22;;;;;;;;;;;;;;;;;;6104306;23;20025;-78
2023/11/27 10:07:53;;;;;;;4.30;2.30;;;;;;;;;;6128885;23;19939;-78
2023/11/27 10:10:25;;;;;;;3.38;2.53;;;;;;;;;;6103873;23;20024;-78
2023/11/27 10:12:55;;;;;;;7.75;3.13;;;;;;;;;;6104666;23;20461;-78
2023/11/27 10:15:27;;;;;;;4.63;2.55;;;;;;;;;;6164032;23;20021;-78
2023/11/27 10:17:56;;;;;;;4.95;2.70;;;;;;;;;;6154258;23;20017;-78
2023/11/27 10:20:28;;;;;;;2.85;2.58;;;;;;;;;;6104632;23;20018;-78
2023/11/27 10:23:01;;;;;;;4.53;2.80;;;;;;;;;;6105164;23;20025;-78
2023/11/27 10:25:29;;;;;;;2.88;2.35;;;;;;;;;;6103599;23;20025;-78
2023/11/27 10:27:58;;;;;;;3.45;3.03;;;;;;;;;;6164602;23;20013;-78
2023/11/27 10:30:29;;;;;;;3.17;2.33;;;;;;;;;;6152718;23;20021;-78
2023/11/27 10:33:00;;;;;;;3.83;2.60;;;;;;;;;;6160180;23;20017;-80
2023/11/27 10:35:32;;;;;;;7.20;3.15;;;;;;;;;;6135170;23;20021;-80
2023/11/27 10:37:59;;;;;;;2.72;2.45;;;;;;;;;;6135587;23;20487;-80
2023/11/27 10:40:29;;;;;;;3.75;2.53;;;;;;;;;;6159930;23;20013;-80
2023/11/27 10:43:00;;;;;;;4.82;2.47;;;;;;;;;;6140909;23;20023;-80
2023/11/27 10:45:35;;;;;;;3.17;2.15;;;;;;;;;;6164851;23;20021;-80
2023/11/27 10:48:03;;;;;;;5.32;2.30;;;;;;;;;;6201012;23;20021;-80
2023/11/27 10:50:33;;;;;;;3.90;2.92;;;;;;;;;;6164780;23;20337;-81
2023/11/27 10:53:04;;;;;;;2.83;2.33;;;;;;;;;;6164640;23;20021;-81
2023/11/27 10:55:34;;;;;;;3.78;2.60;;;;;;;;;;6165207;23;20025;-81
2023/11/27 10:58:05;;;;;;;2.92;2.50;;;;;;;;;;6191418;23;20479;-81
2023/11/27 11:00:38;;;;;;;3.78;1.85;;;;;;;;;;6142188;23;20021;-81
2023/11/27 11:03:15;;;;;;;2.78;2.17;;;;;;;;;;6120302;23;20021;-81
2023/11/27 11:05:49;;;;;;;3.85;2.45;;;;;;;;;;6176245;23;20322;-81
2023/11/27 11:08:18;;;;;;;2.70;2.45;;;;;;;;;;6141613;23;20028;-81
2023/11/27 11:10:47;;;;;;;5.20;3.05;;;;;;;;;;6172142;23;20013;-81
2023/11/27 11:13:18;;;;;;;5.05;3.25;;;;;;;;;;6192054;23;20023;-81
2023/11/27 11:15:54;;;;;;;4.85;2.78;;;;;;;;;;6164980;23;20032;-81
2023/11/27 11:18:31;;;;;;;3.78;3.17;;;;;;;;;;6165511;23;20021;-81
2023/11/27 11:21:12;;;;;;;3.28;1.95;;;;;;;;;;6169536;23;20013;-81
2023/11/27 11:24:02;;;;;;;2.88;2.15;;;;;;;;;;6201631;23;20013;-81
2023/11/27 11:26:38;;;;;;;3.30;2.33;;;;;;;;;;6141925;23;20453;-82
2023/11/27 11:29:12;;;;;;;3.65;2.85;;;;;;;;;;6165103;23;20043;-81
2023/11/27 11:31:45;;;;;;;4.55;2.30;;;;;;;;;;6194064;23;20013;-81
2023/11/27 11:34:22;;;;;;;6.57;2.70;;;;;;;;;;6201627;23;20013;-81
2023/11/27 11:36:55;;;;;;;6.28;3.17;;;;;;;;;;6141320;23;20352;-81
2023/11/27 11:39:25;;;;;;;4.13;3.17;;;;;;;;;;6139903;23;20062;-81
2023/11/27 11:42:01;;;;;;;3.38;2.70;;;;;;;;;;6143565;23;20021;-82
2023/11/27 11:44:29;;;;;;;3.78;2.90;;;;;;;;;;6199204;23;20449;-81
2023/11/27 11:46:59;;;;;;;3.58;2.65;;;;;;;;;;6140648;23;20023;-81
2023/11/27 11:49:29;;;;;;;6.10;3.38;;;;;;;;;;6140130;23;20028;-81
2023/11/27 11:52:03;;;;;;;3.35;2.40;;;;;;;;;;6140866;23;20017;-81
2023/11/27 11:54:31;;;;;;;4.47;2.53;;;;;;;;;;6165380;23;20017;-81
2023/11/27 11:57:17;;;;;;;2.67;2.23;;;;;;;;;;6164829;23;20016;-81
2023/11/27 11:59:50;;;;;;;2.10;1.60;;;;;;;;;;6175053;23;20024;-81
2023/11/27 12:02:19;;;;;;;3.40;2.20;;;;;;;;;;6141107;23;20488;-81
2023/11/27 12:04:51;;;;;;;2.15;1.67;;;;;;;;;;6191184;23;20017;-81
2023/11/27 12:07:21;;;;;;;1.67;1.23;;;;;;;;;;6174720;23;20013;-81
2023/11/27 12:09:51;;;;;;;2.40;1.33;;;;;;;;;;6165698;23;20014;-82
2023/11/27 12:12:20;;;;;;;2.10;1.80;;;;;;;;;;6140174;23;20263;-81
2023/11/27 12:14:46;;;;;;;2.42;1.60;;;;;;;;;;6190501;23;20013;-80
2023/11/27 12:17:15;;;;;;;2.35;1.35;;;;;;;;;;6138895;23;20021;-80
2023/11/27 12:19:45;;;;;;;2.20;0.98;;;;;;;;;;6138115;23;20028;-80
2023/11/27 12:22:14;;;;;;;1.70;1.50;;;;;;;;;;6162678;23;20025;-80
2023/11/27 12:24:46;;;;;;;2.67;1.95;;;;;;;;;;6138105;23;20032;-80
2023/11/27 12:27:14;;;;;;;2.22;1.60;;;;;;;;;;6162177;23;20017;-80
2023/11/27 12:29:41;;;;;;;1.85;1.27;;;;;;;;;;6162364;23;20013;-80
2023/11/27 12:32:08;;;;;;;2.72;1.67;;;;;;;;;;6137295;23;20021;-80
2023/11/27 12:34:40;;;;;;;1.48;1.20;;;;;;;;;;6136198;23;20013;-80
2023/11/27 12:37:10;;;;;;;3.13;1.40;;;;;;;;;;6112252;23;20031;-80
2023/11/27 12:39:38;;;;;;;1.88;1.45;;;;;;;;;;6160189;23;20020;-80
2023/11/27 12:42:13;;;;;;;4.00;1.88;;;;;;;;;;6159691;23;20028;-80
2023/11/27 12:44:46;;;;;;;1.48;1.20;;;;;;;;;;6135505;23;20024;-80
2023/11/27 12:47:19;;;;;;;1.52;1.42;;;;;;;;;;6160127;23;20017;-81
2023/11/27 12:49:51;;;;;;;2.15;1.83;;;;;;;;;;6160935;23;20013;-80
2023/11/27 12:52:18;;;;;;;1.80;1.45;;;;;;;;;;6136545;23;20024;-80
2023/11/27 12:54:54;;;;;;;2.05;1.33;;;;;;;;;;6136759;23;20040;-80
2023/11/27 12:57:25;;;;;;;1.85;1.35;;;;;;;;;;6160237;23;20028;-80
2023/11/27 12:59:52;;;;;;;2.88;1.60;;;;;;;;;;6135830;23;20460;-80
2023/11/27 13:02:21;;;;;;;2.53;1.83;;;;;;;;;;6137132;23;20017;-80
2023/11/27 13:04:53;;;;;;;2.28;1.58;;;;;;;;;;6161644;23;20013;-80
2023/11/27 13:07:21;;;;;;;2.10;1.40;;;;;;;;;;6139782;23;20021;-80
2023/11/27 13:09:52;;;;;;;1.90;1.50;;;;;;;;;;6166926;23;20342;-80
2023/11/27 13:12:20;;;;;;;3.03;1.95;;;;;;;;;;6169938;23;20016;-80
2023/11/27 13:14:49;;;;;;;2.42;2.10;;;;;;;;;;6147826;23;20023;-80
2023/11/27 13:17:22;;;;;;;2.60;1.75;;;;;;;;;;6148691;23;20017;-80
2023/11/27 13:19:54;;;;;;;3.03;2.17;;;;;;;;;;6147868;23;20047;-80
2023/11/27 13:22:22;;;;;;;3.42;2.63;;;;;;;;;;6170379;23;20017;-80
2023/11/27 13:24:50;;;;;;;3.08;2.72;;;;;;;;;;6143628;23;20029;-80
2023/11/27 13:27:23;;;;;;;2.83;2.10;;;;;;;;;;6176338;23;20028;-80
2023/11/27 13:29:54;;;;;;;3.13;1.98;;;;;;;;;;6141830;23;20017;-80
2023/11/27 13:32:22;;;;;;;2.35;2.13;;;;;;;;;;6165644;23;20021;-80
2023/11/27 13:34:55;;;;;;;2.33;1.65;;;;;;;;;;6140418;23;20027;-80
2023/11/27 13:37:27;;;;;;;8.38;2.17;;;;;;;;;;6199522;23;20025;-80
2023/11/27 13:39:57;;;;;;;3.00;1.92;;;;;;;;;;6162457;23;20024;-80
2023/11/27 13:42:25;;;;;;;2.95;1.98;;;;;;;;;;6137076;23;20023;-80
2023/11/27 13:44:53;;;;;;;6.32;2.25;;;;;;;;;;6161349;23;20025;-80
2023/11/27 13:47:21;;;;;;;2.25;1.92;;;;;;;;;;6135534;23;20023;-81
2023/11/27 13:49:48;;;;;;;2.75;2.40;;;;;;;;;;6160858;23;20028;-80
2023/11/27 13:52:19;;;;;;;2.35;1.88;;;;;;;;;;6161556;23;20062;-80
2023/11/27 13:54:48;;;;;;;4.68;2.05;;;;;;;;;;6161340;23;20028;-80
2023/11/27 13:57:27;;;;;;;3.25;2.40;;;;;;;;;;6160225;23;20021;-80
2023/11/27 13:59:56;;;;;;;3.67;2.47;;;;;;;;;;6197181;23;20024;-80
2023/11/27 14:02:27;;;;;;;2.53;2.17;;;;;;;;;;6172025;23;20027;-80
2023/11/27 14:04:55;;;;;;;3.83;2.15;;;;;;;;;;6189349;23;20017;-81
2023/11/27 14:07:24;;;;;;;3.38;2.75;;;;;;;;;;6166864;23;20019;-81
2023/11/27 14:09:58;;;;;;;2.95;2.10;;;;;;;;;;6141709;23;20027;-81
2023/11/27 14:12:27;;;;;;;3.42;2.33;;;;;;;;;;6164599;23;20024;-81
2023/11/27 14:15:08;;;;;;;1.98;1.65;;;;;;;;;;6139872;23;20017;-81
2023/11/27 14:17:37;;;;;;;3.70;2.10;;;;;;;;;;6200676;23;20467;-81
2023/11/27 14:23:04;;;;;;;3.90;3.15;;;;;;;;;;6140210;23;20024;-81
2023/11/27 14:28:19;;;;;;;3.50;2.10;;;;;;;;;;6200914;23;20013;-81
2023/11/27 14:30:49;;;;;;;3.05;2.75;;;;;;;;;;6165172;23;20023;-81
2023/11/27 14:33:19;;;;;;;4.05;2.67;;;;;;;;;;6165495;23;20032;-81
2023/11/27 14:35:52;;;;;;;3.97;2.95;;;;;;;;;;6141144;23;20024;-81
2023/11/27 14:38:25;;;;;;;4.10;2.75;;;;;;;;;;6141811;23;20017;-81
2023/11/27 14:40:52;;;;;;;2.72;2.15;;;;;;;;;;6165957;23;20453;-81
2023/11/27 14:43:21;;;;;;;2.95;2.30;;;;;;;;;;6142028;23;20021;-81
2023/11/27 14:45:51;;;;;;;3.38;3.05;;;;;;;;;;6141393;23;20025;-81
2023/11/27 14:48:23;;;;;;;3.30;2.72;;;;;;;;;;6141284;23;20021;-81
2023/11/27 14:50:51;;;;;;;3.63;2.72;;;;;;;;;;6170540;23;20009;-81
2023/11/27 14:53:19;;;;;;;3.83;3.20;;;;;;;;;;6166192;23;20021;-81
2023/11/27 14:55:46;;;;;;;4.57;3.17;;;;;;;;;;6165769;23;20021;-81
2023/11/27 14:58:16;;;;;;;4.57;2.60;;;;;;;;;;6165564;23;20021;-81
2023/11/27 15:00:48;;;;;;;3.58;2.45;;;;;;;;;;6165665;23;20017;-81
2023/11/27 15:03:19;;;;;;;3.65;2.95;;;;;;;;;;6192557;23;20017;-81